Time;durP1;ratioP1;P1;durP2;ratioP2;P2;SDS_P1;SDS_P2;PMS_P1;PMS_P2;Temp;Humidity;BMP_temperature;BMP_pressure;BME280_temperature;BME280_humidity;BME280_pressure;Samples;Min_cycle;Max_cycle;Signal;HPM_P1;HPM_P2
2022/03/03 00:00:38;;;;;;;5.80;5.30;;;7.20;99.90;;;;;;5043408;28;20220;-52
2022/03/03 00:03:07;;;;;;;7.18;6.47;;;7.20;99.90;;;;;;5035119;28;20723;-53
2022/03/03 00:05:35;;;;;;;6.35;4.40;;;7.10;99.90;;;;;;5043199;28;21358;-53
2022/03/03 00:08:03;;;;;;;6.07;5.35;;;7.10;99.90;;;;;;5049924;28;20216;-53
2022/03/03 00:10:31;;;;;;;6.28;5.25;;;7.10;99.90;;;;;;5052233;28;20189;-52
2022/03/03 00:13:00;;;;;;;5.93;5.20;;;7.10;99.90;;;;;;5045315;28;20217;-52
2022/03/03 00:15:34;;;;;;;5.60;5.07;;;7.10;99.90;;;;;;5043903;28;20230;-52
2022/03/03 00:18:02;;;;;;;6.53;5.22;;;7.10;99.90;;;;;;5034905;28;20271;-53
2022/03/03 00:20:30;;;;;;;7.63;6.60;;;7.10;99.90;;;;;;5038627;28;20197;-52
2022/03/03 00:22:58;;;;;;;6.10;5.50;;;7.10;99.90;;;;;;5051609;28;20209;-54
2022/03/03 00:25:26;;;;;;;5.05;4.63;;;7.10;99.90;;;;;;5052701;28;20286;-54
2022/03/03 00:27:54;;;;;;;6.40;5.32;;;7.10;99.90;;;;;;5052301;28;20281;-53
2022/03/03 00:30:22;;;;;;;4.97;4.28;;;7.10;99.90;;;;;;5024957;28;20239;-52
2022/03/03 00:32:52;;;;;;;5.75;5.15;;;7.10;99.90;;;;;;5048369;28;20310;-53
2022/03/03 00:35:20;;;;;;;6.25;5.30;;;7.10;99.90;;;;;;5046183;28;20197;-53
2022/03/03 00:37:48;;;;;;;5.80;5.20;;;7.10;99.90;;;;;;5046532;28;20225;-53
2022/03/03 00:40:16;;;;;;;4.82;4.25;;;7.10;99.90;;;;;;5051692;28;20611;-54
2022/03/03 00:42:44;;;;;;;6.35;5.25;;;7.10;99.90;;;;;;5048592;28;20252;-51
2022/03/03 00:45:12;;;;;;;6.40;5.80;;;7.10;99.90;;;;;;5049044;28;20247;-54
2022/03/03 00:47:40;;;;;;;5.38;4.88;;;7.10;99.90;;;;;;5051376;28;20220;-52
2022/03/03 00:50:10;;;;;;;6.35;4.72;;;7.10;99.90;;;;;;5046294;28;20566;-51
2022/03/03 00:52:38;;;;;;;6.07;5.13;;;7.10;99.90;;;;;;5031322;28;20758;-53
2022/03/03 00:55:07;;;;;;;5.35;4.75;;;7.10;99.90;;;;;;5046915;28;20224;-53
2022/03/03 00:57:35;;;;;;;8.85;5.28;;;7.10;99.90;;;;;;5050870;28;20220;-52
2022/03/03 01:00:06;;;;;;;5.38;4.88;;;7.10;99.90;;;;;;5045551;28;20268;-53
2022/03/03 01:02:34;;;;;;;6.18;5.57;;;7.10;99.90;;;;;;5050985;28;20743;-52
2022/03/03 01:05:03;;;;;;;5.78;4.60;;;7.10;99.90;;;;;;5046946;28;20856;-53
2022/03/03 01:07:34;;;;;;;4.90;4.40;;;7.10;99.90;;;;;;5031188;28;20228;-52
2022/03/03 01:10:02;;;;;;;5.47;4.93;;;7.10;99.90;;;;;;5044813;28;20209;-53
2022/03/03 01:12:30;;;;;;;8.43;5.90;;;7.10;99.90;;;;;;5050882;28;20250;-52
2022/03/03 01:14:58;;;;;;;8.65;5.32;;;7.10;99.90;;;;;;5049520;28;20189;-53
2022/03/03 01:17:27;;;;;;;6.38;5.10;;;7.10;99.90;;;;;;5049262;28;20220;-54
2022/03/03 01:19:58;;;;;;;6.15;4.97;;;7.10;99.90;;;;;;5049582;28;20188;-53
2022/03/03 01:22:26;;;;;;;5.22;4.72;;;7.10;99.90;;;;;;5049983;28;20252;-53
2022/03/03 01:24:55;;;;;;;7.35;5.72;;;7.10;99.90;;;;;;5050373;28;20252;-52
2022/03/03 01:27:24;;;;;;;5.53;4.85;;;7.10;99.90;;;;;;5050006;28;20224;-54
2022/03/03 01:29:52;;;;;;;5.95;5.35;;;7.10;99.90;;;;;;5035527;28;20699;-53
2022/03/03 01:32:20;;;;;;;5.63;5.10;;;7.00;99.90;;;;;;5040870;28;20455;-53
2022/03/03 01:34:48;;;;;;;6.53;5.25;;;7.10;99.90;;;;;;5048276;28;20196;-53
2022/03/03 01:37:16;;;;;;;5.50;4.97;;;7.10;99.90;;;;;;5040619;28;20286;-53
2022/03/03 01:39:44;;;;;;;5.80;4.95;;;7.10;99.90;;;;;;5050526;28;20192;-53
2022/03/03 01:42:17;;;;;;;6.93;5.50;;;7.10;99.90;;;;;;5049870;28;20626;-52
2022/03/03 01:44:46;;;;;;;5.45;4.50;;;7.10;99.90;;;;;;5048782;28;20665;-53
2022/03/03 01:47:19;;;;;;;5.85;5.32;;;7.00;99.90;;;;;;5049791;28;20228;-53
2022/03/03 01:49:47;;;;;;;6.22;5.07;;;7.10;99.90;;;;;;5049834;28;20224;-53
2022/03/03 01:52:16;;;;;;;5.45;4.95;;;7.00;99.90;;;;;;5039227;28;20757;-53
2022/03/03 01:54:45;;;;;;;7.25;5.80;;;7.00;99.90;;;;;;5050452;28;20252;-54
2022/03/03 01:57:16;;;;;;;6.05;5.55;;;7.00;99.90;;;;;;5049998;28;20224;-54
2022/03/03 01:59:44;;;;;;;5.82;5.10;;;7.00;99.90;;;;;;5048703;28;20220;-51
2022/03/03 02:02:13;;;;;;;5.55;4.70;;;7.00;99.90;;;;;;5048753;28;20705;-54
2022/03/03 02:04:42;;;;;;;5.63;5.13;;;7.00;99.90;;;;;;5049536;28;20192;-53
2022/03/03 02:07:10;;;;;;;5.50;5.00;;;7.00;99.90;;;;;;5035811;28;20220;-52
2022/03/03 02:09:40;;;;;;;5.00;4.50;;;7.00;99.90;;;;;;5049711;28;20188;-54
2022/03/03 02:12:09;;;;;;;5.72;4.75;;;7.00;99.90;;;;;;5047132;28;20230;-53
2022/03/03 02:14:46;;;;;;;7.20;5.63;;;7.00;99.90;;;;;;5038076;28;20272;-53
2022/03/03 02:17:15;;;;;;;4.40;4.00;;;7.00;99.90;;;;;;5040582;28;20643;-53
2022/03/03 02:19:43;;;;;;;5.65;4.35;;;7.00;99.90;;;;;;5048910;28;20262;-53
2022/03/03 02:22:13;;;;;;;5.78;5.28;;;7.00;99.90;;;;;;5039235;28;20238;-53
2022/03/03 02:24:43;;;;;;;6.55;5.30;;;7.00;99.90;;;;;;5050132;28;20196;-52
2022/03/03 02:27:12;;;;;;;7.10;4.82;;;7.00;99.90;;;;;;5049748;28;20733;-52
2022/03/03 02:29:40;;;;;;;7.07;5.28;;;7.00;99.90;;;;;;5034144;28;20459;-53
2022/03/03 02:32:09;;;;;;;4.82;4.30;;;7.00;99.90;;;;;;5037727;28;20266;-52
2022/03/03 02:34:37;;;;;;;5.68;5.13;;;7.00;99.90;;;;;;5049807;28;20184;-53
2022/03/03 02:37:06;;;;;;;5.90;4.03;;;7.00;99.90;;;;;;5036867;28;20242;-52
2022/03/03 02:39:35;;;;;;;6.60;4.57;;;7.00;99.90;;;;;;5031832;28;20189;-51
2022/03/03 02:42:03;;;;;;;6.00;5.10;;;7.00;99.90;;;;;;5031384;28;20254;-53
2022/03/03 02:44:31;;;;;;;5.32;4.82;;;7.00;99.90;;;;;;5041116;28;20553;-52
2022/03/03 02:46:59;;;;;;;6.70;4.90;;;7.00;99.90;;;;;;5036864;28;20228;-52
2022/03/03 02:49:27;;;;;;;8.77;6.00;;;7.00;99.90;;;;;;5053651;28;20184;-54
2022/03/03 02:51:57;;;;;;;6.30;5.70;;;7.00;99.90;;;;;;5037941;28;20224;-53
2022/03/03 02:54:25;;;;;;;5.50;4.90;;;7.00;99.90;;;;;;5052830;28;20192;-53
2022/03/03 02:59:45;;;;;;;6.25;5.60;;;6.90;99.90;;;;;;5036663;28;20220;-53
2022/03/03 03:02:13;;;;;;;7.03;6.35;;;6.90;99.90;;;;;;5034849;28;20232;-53
2022/03/03 03:04:41;;;;;;;5.30;4.80;;;6.90;99.90;;;;;;5052491;28;20250;-53
2022/03/03 03:07:09;;;;;;;5.35;4.85;;;6.90;99.90;;;;;;5043063;28;20671;-54
2022/03/03 03:09:38;;;;;;;5.72;5.13;;;6.90;99.90;;;;;;5054106;28;20185;-55
2022/03/03 03:12:08;;;;;;;7.68;6.85;;;6.90;99.90;;;;;;5052852;28;20231;-54
2022/03/03 03:14:36;;;;;;;5.88;5.28;;;6.90;99.90;;;;;;5043954;28;20221;-52
2022/03/03 03:17:04;;;;;;;6.60;5.50;;;6.90;99.90;;;;;;5042804;28;20274;-54
2022/03/03 03:19:32;;;;;;;5.95;5.03;;;6.90;99.90;;;;;;5053120;28;20197;-53
2022/03/03 03:22:02;;;;;;;6.25;5.55;;;6.90;99.90;;;;;;5042314;28;20220;-54
2022/03/03 03:24:30;;;;;;;5.40;4.72;;;6.90;99.90;;;;;;5052987;28;20199;-54
2022/03/03 03:26:58;;;;;;;5.57;5.07;;;6.90;99.90;;;;;;5052520;28;20220;-53
2022/03/03 03:29:27;;;;;;;5.68;4.60;;;6.90;99.90;;;;;;5024907;28;20232;-54
2022/03/03 03:31:55;;;;;;;5.97;5.10;;;6.90;99.90;;;;;;5022127;28;20251;-53
2022/03/03 03:34:23;;;;;;;6.03;5.43;;;6.90;99.90;;;;;;5052201;28;20192;-53
2022/03/03 03:36:56;;;;;;;6.95;5.60;;;6.90;99.90;;;;;;5040079;28;20242;-53
2022/03/03 03:39:24;;;;;;;7.25;4.60;;;6.90;99.90;;;;;;5052653;28;20181;-53
2022/03/03 03:41:52;;;;;;;6.20;4.85;;;6.90;99.90;;;;;;5053081;28;20212;-53
2022/03/03 03:44:20;;;;;;;5.60;4.57;;;6.90;99.90;;;;;;5042200;28;20280;-54
2022/03/03 03:46:50;;;;;;;5.60;4.72;;;6.90;99.90;;;;;;5037244;28;20247;-55
2022/03/03 03:49:18;;;;;;;5.65;4.70;;;6.90;99.90;;;;;;5052772;28;20212;-53
2022/03/03 03:51:46;;;;;;;5.40;4.40;;;6.90;99.90;;;;;;5042270;28;20638;-53
2022/03/03 03:54:14;;;;;;;6.80;5.65;;;6.90;99.90;;;;;;5052466;28;20655;-53
2022/03/03 03:56:42;;;;;;;5.30;4.78;;;6.90;99.90;;;;;;5051672;28;20208;-51
2022/03/03 03:59:10;;;;;;;5.13;4.63;;;6.90;99.90;;;;;;5052223;28;20183;-53
2022/03/03 04:01:38;;;;;;;5.68;5.07;;;6.90;99.90;;;;;;5041837;28;20208;-53
2022/03/03 04:04:08;;;;;;;5.07;4.57;;;6.90;99.90;;;;;;5051872;28;20188;-53
2022/03/03 04:06:37;;;;;;;5.75;4.60;;;6.90;99.90;;;;;;5050631;28;20200;-53
2022/03/03 04:09:05;;;;;;;5.30;4.88;;;6.90;99.90;;;;;;5052005;28;20573;-53
2022/03/03 04:11:33;;;;;;;5.60;5.10;;;6.80;99.90;;;;;;5052672;28;20295;-53
2022/03/03 04:14:01;;;;;;;6.40;5.75;;;6.80;99.90;;;;;;5043681;28;20269;-54
2022/03/03 04:16:30;;;;;;;6.47;5.88;;;6.80;99.90;;;;;;5032803;28;20276;-54
2022/03/03 04:18:59;;;;;;;6.97;5.93;;;6.80;99.90;;;;;;5039577;28;20283;-53
2022/03/03 04:21:31;;;;;;;6.43;5.45;;;6.80;99.90;;;;;;5050679;28;20569;-53
2022/03/03 04:23:59;;;;;;;6.47;4.72;;;6.80;99.90;;;;;;5051298;28;20274;-51
2022/03/03 04:26:27;;;;;;;6.05;5.35;;;6.80;99.90;;;;;;5052474;28;20191;-53
2022/03/03 04:28:55;;;;;;;7.10;4.72;;;6.80;99.90;;;;;;5046318;28;20316;-53
2022/03/03 04:31:23;;;;;;;5.50;5.00;;;6.80;99.90;;;;;;5034474;28;20631;-52
2022/03/03 04:33:51;;;;;;;5.95;5.13;;;6.80;99.90;;;;;;5033818;28;20786;-54
2022/03/03 04:36:20;;;;;;;6.35;5.75;;;6.80;99.90;;;;;;5037704;28;20198;-53
2022/03/03 04:38:50;;;;;;;6.65;5.95;;;6.80;99.90;;;;;;5050997;28;20639;-53
2022/03/03 04:41:19;;;;;;;5.88;5.15;;;6.80;99.90;;;;;;5034008;28;20217;-53
2022/03/03 04:43:49;;;;;;;6.60;5.70;;;6.80;99.90;;;;;;5035364;28;20220;-53
2022/03/03 04:46:17;;;;;;;5.78;5.28;;;6.70;99.90;;;;;;5051033;28;20192;-51
2022/03/03 04:48:45;;;;;;;6.80;5.70;;;6.70;99.90;;;;;;5051022;28;20659;-53
2022/03/03 04:51:13;;;;;;;8.82;5.43;;;6.70;99.90;;;;;;5041322;28;20208;-52
2022/03/03 04:53:41;;;;;;;6.80;6.15;;;6.70;99.90;;;;;;5051228;28;20224;-52
2022/03/03 04:56:11;;;;;;;6.38;5.85;;;6.70;99.90;;;;;;5032952;28;20682;-54
2022/03/03 04:58:40;;;;;;;9.38;6.07;;;6.70;99.90;;;;;;5043935;28;20237;-54
2022/03/03 05:01:08;;;;;;;6.47;5.80;;;6.70;99.90;;;;;;5032480;28;20283;-51
2022/03/03 05:03:36;;;;;;;6.07;5.45;;;6.70;99.90;;;;;;5050341;28;20220;-51
2022/03/03 05:06:04;;;;;;;7.60;5.85;;;6.70;99.90;;;;;;5021999;28;20193;-51
2022/03/03 05:08:32;;;;;;;8.05;5.68;;;6.70;99.90;;;;;;5020561;28;20299;-52
2022/03/03 05:11:00;;;;;;;5.20;4.72;;;6.70;99.90;;;;;;5051318;28;20220;-53
2022/03/03 05:13:30;;;;;;;5.70;5.13;;;6.70;99.90;;;;;;5046364;28;20584;-52
2022/03/03 05:15:58;;;;;;;5.78;5.18;;;6.70;99.90;;;;;;5031104;28;20657;-54
2022/03/03 05:18:26;;;;;;;6.35;5.40;;;6.70;99.90;;;;;;5048814;28;20247;-53
2022/03/03 05:20:54;;;;;;;6.53;5.63;;;6.70;99.90;;;;;;5040917;28;20750;-53
2022/03/03 05:23:23;;;;;;;5.70;4.90;;;6.70;99.90;;;;;;5048126;28;20228;-52
2022/03/03 05:25:51;;;;;;;9.05;5.07;;;6.60;99.90;;;;;;5050481;28;20185;-53
2022/03/03 05:28:20;;;;;;;4.63;3.92;;;6.60;99.90;;;;;;5050165;28;20634;-53
2022/03/03 05:30:50;;;;;;;6.55;5.30;;;6.60;99.90;;;;;;5016231;28;20233;-52
2022/03/03 05:33:18;;;;;;;4.95;4.45;;;6.60;99.90;;;;;;5050346;28;20589;-54
2022/03/03 05:35:49;;;;;;;5.50;4.32;;;6.70;99.90;;;;;;5030775;28;20191;-52
2022/03/03 05:38:17;;;;;;;5.90;5.30;;;6.60;99.90;;;;;;5049262;28;20228;-53
2022/03/03 05:40:45;;;;;;;5.07;4.60;;;6.60;99.90;;;;;;5048795;28;20240;-53
2022/03/03 05:43:14;;;;;;;6.75;5.43;;;6.60;99.90;;;;;;5050483;28;20300;-53
2022/03/03 05:45:42;;;;;;;6.03;5.35;;;6.60;99.90;;;;;;5044197;28;20188;-55
2022/03/03 05:48:12;;;;;;;8.35;5.13;;;6.60;99.90;;;;;;5050025;28;20224;-51
2022/03/03 05:50:40;;;;;;;6.57;5.97;;;6.60;99.90;;;;;;5046785;28;20606;-53
2022/03/03 05:53:08;;;;;;;7.32;6.10;;;6.60;99.90;;;;;;5049160;28;20220;-53
2022/03/03 05:55:42;;;;;;;8.00;6.13;;;6.60;99.90;;;;;;5050061;28;20193;-53
2022/03/03 05:58:15;;;;;;;6.50;5.85;;;6.60;99.90;;;;;;5046096;28;20221;-53
2022/03/03 06:00:45;;;;;;;6.93;5.05;;;6.50;99.90;;;;;;5048963;28;20262;-52
2022/03/03 06:03:16;;;;;;;6.88;5.30;;;6.50;99.90;;;;;;5049139;28;20212;-53
2022/03/03 06:05:49;;;;;;;7.43;5.93;;;6.50;99.90;;;;;;5047968;28;20192;-51
2022/03/03 06:08:20;;;;;;;6.85;5.72;;;6.50;99.90;;;;;;5048764;28;20266;-52
2022/03/03 06:10:52;;;;;;;6.30;5.65;;;6.50;99.90;;;;;;5049612;28;20711;-52
2022/03/03 06:13:23;;;;;;;6.65;5.95;;;6.50;99.90;;;;;;5036297;28;20768;-52
2022/03/03 06:15:52;;;;;;;7.88;6.57;;;6.50;99.90;;;;;;5035882;28;20205;-51
2022/03/03 06:18:26;;;;;;;8.30;6.90;;;6.50;99.90;;;;;;5048915;28;20216;-53
2022/03/03 06:20:55;;;;;;;6.70;6.00;;;6.50;99.90;;;;;;5048208;28;20216;-52
2022/03/03 06:23:23;;;;;;;6.70;6.10;;;6.50;99.90;;;;;;5052749;28;20488;-53
2022/03/03 06:25:58;;;;;;;9.23;6.93;;;6.50;99.90;;;;;;5053229;28;20192;-52
2022/03/03 06:28:26;;;;;;;7.93;6.65;;;6.40;99.90;;;;;;5048893;28;20228;-53
2022/03/03 06:30:54;;;;;;;6.70;5.85;;;6.40;99.90;;;;;;5054044;28;20266;-54
2022/03/03 06:33:25;;;;;;;7.15;6.45;;;6.40;99.90;;;;;;5053040;28;20220;-52
2022/03/03 06:35:53;;;;;;;5.03;4.53;;;6.40;99.90;;;;;;5043515;28;20189;-52
2022/03/03 06:38:21;;;;;;;5.97;5.38;;;6.40;99.90;;;;;;5051026;28;20335;-53
2022/03/03 06:40:49;;;;;;;6.13;5.40;;;6.40;99.90;;;;;;5054210;28;20231;-53
2022/03/03 06:43:17;;;;;;;7.90;5.95;;;6.40;99.90;;;;;;5048094;28;20308;-53
2022/03/03 06:45:46;;;;;;;6.43;5.28;;;6.40;99.90;;;;;;5051521;28;20191;-54
2022/03/03 06:48:14;;;;;;;6.60;5.60;;;6.40;99.90;;;;;;5053257;28;20306;-54
2022/03/03 06:50:44;;;;;;;7.05;5.68;;;6.40;99.90;;;;;;5050393;28;22121;-53
2022/03/03 06:53:12;;;;;;;6.25;5.57;;;6.40;99.90;;;;;;5053023;28;20262;-53
2022/03/03 06:55:45;;;;;;;6.25;5.72;;;6.40;99.90;;;;;;5035569;28;20214;-54
2022/03/03 06:58:15;;;;;;;6.70;5.80;;;6.40;99.90;;;;;;5052225;28;20281;-54
2022/03/03 07:00:50;;;;;;;5.55;5.05;;;6.40;99.90;;;;;;5053045;28;20251;-54
2022/03/03 07:03:21;;;;;;;6.20;5.32;;;6.40;99.90;;;;;;5052280;28;20247;-55
2022/03/03 07:05:52;;;;;;;7.53;5.80;;;6.40;99.90;;;;;;5044086;28;20209;-54
2022/03/03 07:08:21;;;;;;;5.70;5.10;;;6.40;99.90;;;;;;5052317;28;20243;-52
2022/03/03 07:10:52;;;;;;;6.88;5.80;;;6.40;99.90;;;;;;5054559;28;20236;-54
2022/03/03 07:13:20;;;;;;;8.43;7.00;;;6.40;99.90;;;;;;5049023;28;20258;-53
2022/03/03 07:15:53;;;;;;;7.03;5.93;;;6.40;99.90;;;;;;5053088;28;20189;-54
2022/03/03 07:18:25;;;;;;;8.07;6.50;;;6.40;99.90;;;;;;5052602;28;20224;-53
2022/03/03 07:21:03;;;;;;;6.18;5.57;;;6.40;99.90;;;;;;5051789;28;20213;-52
2022/03/03 07:23:36;;;;;;;6.82;6.13;;;6.40;99.90;;;;;;5052605;28;20255;-53
2022/03/03 07:26:07;;;;;;;7.55;6.07;;;6.40;99.90;;;;;;5052263;28;20203;-51
2022/03/03 07:28:39;;;;;;;7.30;6.05;;;6.40;99.90;;;;;;5052172;28;20224;-55
2022/03/03 07:31:08;;;;;;;7.10;5.50;;;6.40;99.90;;;;;;5049375;28;20235;-49
2022/03/03 07:33:48;;;;;;;11.73;6.80;;;6.40;99.90;;;;;;5052013;28;20220;-51
2022/03/03 07:36:23;;;;;;;17.70;12.68;;;6.40;99.90;;;;;;5038411;28;20196;-53
2022/03/03 07:38:58;;;;;;;15.95;12.30;;;6.30;99.90;;;;;;5051480;28;20243;-50
2022/03/03 07:41:28;;;;;;;15.82;12.98;;;6.20;98.90;;;;;;5050452;28;20246;-51
2022/03/03 07:43:58;;;;;;;14.90;12.35;;;6.30;99.90;;;;;;5050353;28;20675;-49
2022/03/03 07:46:28;;;;;;;18.05;12.93;;;6.20;99.90;;;;;;5044697;28;20315;-52
2022/03/03 07:48:56;;;;;;;16.88;13.02;;;6.20;99.90;;;;;;5050072;28;20542;-53
2022/03/03 07:51:26;;;;;;;12.85;11.55;;;6.20;99.90;;;;;;5050182;28;20209;-53
2022/03/03 07:53:54;;;;;;;16.35;12.23;;;6.20;99.90;;;;;;5048018;28;20246;-53
2022/03/03 07:56:27;;;;;;;17.83;12.52;;;6.20;99.90;;;;;;5049275;28;20196;-51
2022/03/03 07:59:01;;;;;;;13.13;10.27;;;6.10;98.50;;;;;;5047898;28;20220;-53
2022/03/03 08:01:31;;;;;;;13.88;11.77;;;6.10;98.40;;;;;;5049498;28;20690;-53
2022/03/03 08:04:02;;;;;;;14.27;10.38;;;6.10;98.10;;;;;;5052366;28;20228;-52
2022/03/03 08:06:33;;;;;;;16.35;12.02;;;6.10;98.40;;;;;;5037138;28;20195;-53
2022/03/03 08:09:02;;;;;;;16.48;10.95;;;6.10;98.90;;;;;;5032727;28;20275;-52
2022/03/03 08:11:30;;;;;;;14.00;10.60;;;6.10;99.10;;;;;;5033058;28;20209;-54
2022/03/03 08:13:58;;;;;;;15.05;11.48;;;6.10;99.60;;;;;;5031637;28;20688;-55
2022/03/03 08:16:27;;;;;;;14.40;10.50;;;6.10;99.90;;;;;;5033320;28;20197;-54
2022/03/03 08:18:57;;;;;;;13.50;10.15;;;6.20;99.90;;;;;;5048519;28;20216;-54
2022/03/03 08:21:26;;;;;;;11.30;10.18;;;6.20;99.90;;;;;;5037396;28;20219;-54
2022/03/03 08:23:56;;;;;;;12.95;10.80;;;6.20;99.90;;;;;;5032306;28;20566;-53
2022/03/03 08:26:26;;;;;;;11.27;9.25;;;6.20;99.90;;;;;;5032483;28;20204;-54
2022/03/03 08:28:54;;;;;;;13.13;10.50;;;6.20;99.90;;;;;;5031035;28;20217;-53
2022/03/03 08:31:29;;;;;;;11.70;9.75;;;6.30;99.90;;;;;;5032996;28;20304;-53
2022/03/03 08:34:03;;;;;;;12.48;9.95;;;6.30;99.90;;;;;;5031688;28;20240;-53
2022/03/03 08:36:35;;;;;;;10.95;9.73;;;6.30;99.90;;;;;;5032025;28;20201;-55
2022/03/03 08:39:07;;;;;;;10.30;9.30;;;6.30;99.90;;;;;;5032016;28;20278;-51
2022/03/03 08:41:38;;;;;;;13.45;9.23;;;6.30;99.90;;;;;;5032786;28;20252;-53
2022/03/03 08:44:09;;;;;;;13.23;10.07;;;6.30;99.90;;;;;;5029605;28;20217;-54
2022/03/03 08:46:40;;;;;;;13.73;8.77;;;6.30;99.90;;;;;;5032320;28;20204;-56
2022/03/03 08:49:10;;;;;;;10.30;8.32;;;6.30;99.90;;;;;;5032188;28;20270;-53
2022/03/03 08:51:40;;;;;;;9.73;8.68;;;6.30;99.90;;;;;;5046837;28;20212;-53
2022/03/03 08:54:11;;;;;;;12.10;9.30;;;6.40;99.90;;;;;;5051410;28;20610;-53
2022/03/03 08:56:39;;;;;;;11.23;9.00;;;6.40;99.90;;;;;;5051653;28;20223;-53
2022/03/03 08:59:07;;;;;;;11.48;8.70;;;6.40;99.90;;;;;;5051833;28;20200;-52
2022/03/03 09:01:35;;;;;;;10.23;8.85;;;6.40;99.90;;;;;;5033714;28;20292;-54
2022/03/03 09:04:06;;;;;;;10.57;8.00;;;6.40;99.90;;;;;;5036615;28;20548;-52
2022/03/03 09:06:34;;;;;;;9.55;8.57;;;6.40;99.90;;;;;;5035696;28;20637;-53
2022/03/03 09:09:03;;;;;;;9.95;7.82;;;6.40;99.90;;;;;;5031211;28;20719;-53
2022/03/03 09:11:32;;;;;;;10.73;9.60;;;6.40;99.90;;;;;;5031968;28;20282;-53
2022/03/03 09:14:00;;;;;;;8.95;7.20;;;6.40;99.90;;;;;;5039994;28;20722;-53
2022/03/03 09:16:28;;;;;;;10.60;8.25;;;6.40;99.90;;;;;;5031871;28;20227;-53
2022/03/03 09:18:58;;;;;;;9.15;8.25;;;6.50;99.90;;;;;;5031354;28;20224;-54
2022/03/03 09:21:28;;;;;;;9.55;8.43;;;6.40;99.90;;;;;;5030537;28;20303;-53
2022/03/03 09:23:56;;;;;;;8.73;7.80;;;6.50;99.90;;;;;;5031266;28;20649;-52
2022/03/03 09:26:24;;;;;;;8.48;7.43;;;6.50;99.90;;;;;;5031609;28;20649;-53
2022/03/03 09:28:53;;;;;;;9.73;7.28;;;6.50;99.90;;;;;;5031432;28;20237;-54
2022/03/03 09:31:22;;;;;;;9.48;8.48;;;6.50;99.90;;;;;;5050402;28;20553;-54
2022/03/03 09:33:51;;;;;;;9.45;8.45;;;6.50;99.90;;;;;;5051320;28;20228;-53
2022/03/03 09:36:20;;;;;;;9.02;7.32;;;6.50;99.90;;;;;;5037031;28;20203;-52
2022/03/03 09:38:48;;;;;;;9.95;8.18;;;6.50;99.90;;;;;;5031174;28;20656;-51
2022/03/03 09:41:17;;;;;;;9.35;8.00;;;6.50;99.90;;;;;;5032090;28;20209;-53
2022/03/03 09:43:45;;;;;;;7.60;6.85;;;6.50;99.90;;;;;;5030504;28;20231;-53
2022/03/03 09:46:14;;;;;;;9.20;8.20;;;6.50;99.90;;;;;;5031590;28;20196;-53
2022/03/03 09:48:43;;;;;;;7.93;6.95;;;6.50;99.90;;;;;;5030500;28;20221;-54
2022/03/03 09:51:11;;;;;;;9.75;8.75;;;6.50;99.90;;;;;;5030594;28;20319;-55
2022/03/03 09:53:49;;;;;;;8.73;7.55;;;6.50;99.90;;;;;;5030504;28;20224;-53
2022/03/03 09:56:17;;;;;;;8.23;7.50;;;6.50;99.90;;;;;;5030715;28;20223;-55
2022/03/03 09:58:45;;;;;;;7.72;7.00;;;6.50;99.90;;;;;;5029550;28;20220;-53
2022/03/03 10:01:17;;;;;;;8.10;7.30;;;6.50;99.90;;;;;;5029513;28;20295;-54
2022/03/03 10:03:47;;;;;;;8.45;7.45;;;6.50;99.90;;;;;;5030087;28;20256;-54
2022/03/03 10:06:21;;;;;;;8.85;7.10;;;6.50;99.90;;;;;;5029954;28;20673;-52
2022/03/03 10:08:51;;;;;;;10.05;7.82;;;6.50;99.90;;;;;;5030175;28;20281;-53
2022/03/03 10:11:19;;;;;;;7.95;6.82;;;6.50;99.90;;;;;;5030524;28;20266;-54
2022/03/03 10:13:49;;;;;;;8.85;7.57;;;6.50;99.90;;;;;;5040973;28;20307;-52
2022/03/03 10:16:24;;;;;;;8.80;6.57;;;6.50;99.90;;;;;;5050074;28;20659;-54
2022/03/03 10:18:59;;;;;;;8.60;7.57;;;6.50;99.90;;;;;;5049619;28;20269;-53
2022/03/03 10:21:29;;;;;;;10.60;6.90;;;6.50;99.90;;;;;;5048290;28;20679;-52
2022/03/03 10:23:58;;;;;;;9.07;7.40;;;6.50;99.90;;;;;;5049594;28;20227;-54
2022/03/03 10:26:37;;;;;;;7.47;6.63;;;6.50;99.90;;;;;;5050629;28;20189;-53
2022/03/03 10:29:16;;;;;;;7.45;6.75;;;6.50;99.90;;;;;;5050029;28;20286;-52
2022/03/03 10:31:51;;;;;;;8.50;6.97;;;6.50;99.90;;;;;;5048253;28;20761;-54
2022/03/03 10:34:21;;;;;;;8.00;6.57;;;6.50;99.90;;;;;;5049824;28;20475;-53
2022/03/03 10:36:57;;;;;;;7.22;6.53;;;6.50;99.90;;;;;;5014412;28;20284;-53
2022/03/03 10:39:26;;;;;;;10.70;6.55;;;6.50;99.90;;;;;;5030429;28;20670;-54
2022/03/03 10:41:57;;;;;;;7.03;6.32;;;6.50;99.90;;;;;;5029767;28;20228;-54
2022/03/03 10:44:30;;;;;;;8.48;7.63;;;6.50;99.90;;;;;;5029450;28;20616;-53
2022/03/03 10:47:05;;;;;;;6.90;5.63;;;6.50;99.90;;;;;;5029719;28;20677;-54
2022/03/03 10:49:34;;;;;;;7.22;6.30;;;6.50;99.90;;;;;;5030566;28;20196;-53
2022/03/03 10:52:13;;;;;;;7.22;6.40;;;6.50;99.90;;;;;;5029284;28;20311;-53
2022/03/03 10:54:53;;;;;;;7.63;6.82;;;6.50;99.90;;;;;;5029984;28;20188;-53
2022/03/03 10:57:32;;;;;;;7.28;6.15;;;6.50;99.90;;;;;;5029613;28;20252;-52
2022/03/03 11:00:01;;;;;;;7.07;6.38;;;6.50;99.90;;;;;;5029910;28;20299;-53
2022/03/03 11:02:31;;;;;;;9.10;7.20;;;6.50;99.90;;;;;;5029731;28;20379;-51
2022/03/03 11:05:00;;;;;;;8.77;6.65;;;6.50;99.90;;;;;;5030871;28;20216;-53
2022/03/03 11:07:30;;;;;;;7.43;6.07;;;6.50;99.90;;;;;;5050683;28;20224;-54
2022/03/03 11:09:58;;;;;;;7.45;6.63;;;6.50;99.90;;;;;;5053536;28;20254;-52
2022/03/03 11:12:27;;;;;;;9.38;6.93;;;6.50;99.90;;;;;;5053412;28;20228;-54
2022/03/03 11:14:57;;;;;;;6.97;6.28;;;6.50;99.90;;;;;;5050063;28;20280;-53
2022/03/03 11:17:25;;;;;;;6.82;6.00;;;6.50;99.90;;;;;;5053178;28;20646;-53
2022/03/03 11:19:58;;;;;;;6.47;5.78;;;6.50;99.90;;;;;;5051477;28;20216;-52
2022/03/03 11:22:27;;;;;;;6.82;6.13;;;6.50;99.90;;;;;;5028147;28;20311;-54
2022/03/03 11:24:59;;;;;;;7.03;6.20;;;6.50;99.90;;;;;;5053030;28;20188;-53
2022/03/03 11:27:37;;;;;;;6.50;5.90;;;6.50;99.90;;;;;;5052978;28;20331;-53
2022/03/03 11:30:16;;;;;;;12.30;6.72;;;6.50;99.90;;;;;;5046970;28;20201;-54
2022/03/03 11:32:45;;;;;;;6.30;5.60;;;6.50;99.90;;;;;;5032600;28;20232;-52
2022/03/03 11:35:16;;;;;;;7.18;5.80;;;6.50;99.90;;;;;;5032556;28;20193;-53
2022/03/03 11:37:45;;;;;;;7.43;6.70;;;6.50;99.90;;;;;;5032953;28;20700;-54
2022/03/03 11:40:18;;;;;;;8.57;5.10;;;6.50;99.90;;;;;;5033360;28;20193;-52
2022/03/03 11:42:51;;;;;;;6.93;5.50;;;6.50;99.90;;;;;;5032753;28;20299;-54
2022/03/03 11:45:32;;;;;;;6.95;6.25;;;6.50;99.90;;;;;;5032135;28;20193;-51
2022/03/03 11:48:12;;;;;;;7.55;5.65;;;6.50;99.90;;;;;;5032835;28;20228;-51
2022/03/03 11:50:42;;;;;;;7.30;6.13;;;6.50;99.90;;;;;;5032692;28;20276;-53
2022/03/03 11:53:19;;;;;;;5.78;4.88;;;6.50;99.90;;;;;;5032443;28;20283;-53
2022/03/03 11:55:49;;;;;;;6.50;5.88;;;6.50;99.90;;;;;;5032458;28;20192;-53
2022/03/03 11:58:21;;;;;;;7.32;6.20;;;6.50;99.90;;;;;;5030656;28;20859;-54
2022/03/03 12:01:08;;;;;;;6.97;5.95;;;6.50;99.90;;;;;;5032959;28;20702;-53
2022/03/03 12:04:01;;;;;;;5.93;4.63;;;6.50;99.90;;;;;;5031895;28;20220;-53
2022/03/03 12:06:39;;;;;;;7.38;5.88;;;6.50;99.90;;;;;;5032622;28;20263;-52
2022/03/03 12:09:22;;;;;;;6.00;5.40;;;6.50;99.90;;;;;;5032866;28;20558;-52
2022/03/03 12:11:50;;;;;;;6.32;5.68;;;6.50;99.90;;;;;;5032442;28;20256;-53
2022/03/03 12:14:29;;;;;;;5.97;5.43;;;6.50;99.90;;;;;;5031984;28;20212;-53
2022/03/03 12:17:30;;;;;;;5.85;5.35;;;6.50;99.90;;;;;;5039910;28;20319;-52
2022/03/03 12:20:35;;;;;;;7.90;5.93;;;6.50;99.90;;;;;;5048718;28;20237;-53
2022/03/03 12:23:35;;;;;;;5.47;4.90;;;6.50;99.90;;;;;;5040157;28;20215;-52
2022/03/03 12:26:05;;;;;;;19.45;10.25;;;6.50;99.90;;;;;;5046521;28;20715;-52
2022/03/03 12:28:39;;;;;;;14.05;10.57;;;6.60;99.90;;;;;;5049401;28;20219;-52
2022/03/03 12:31:25;;;;;;;12.38;10.00;;;7.00;94.40;;;;;;5024723;28;20251;-51
2022/03/03 12:34:06;;;;;;;13.82;10.05;;;7.30;91.20;;;;;;5045216;28;21487;-56
2022/03/03 12:36:37;;;;;;;18.42;10.25;;;7.30;91.40;;;;;;5043317;28;20181;-53
2022/03/03 12:39:08;;;;;;;16.38;10.43;;;7.20;92.90;;;;;;5048245;28;20251;-53
2022/03/03 12:41:38;;;;;;;12.57;9.35;;;7.20;94.40;;;;;;5048377;28;20328;-54
2022/03/03 12:44:09;;;;;;;13.15;10.90;;;7.10;94.40;;;;;;5044687;28;20258;-53
2022/03/03 12:46:38;;;;;;;12.85;9.90;;;7.00;95.30;;;;;;5049557;28;20227;-54
2022/03/03 12:49:07;;;;;;;12.52;10.05;;;6.90;96.00;;;;;;5045894;28;20184;-53
2022/03/03 12:51:41;;;;;;;12.70;9.73;;;6.90;96.90;;;;;;5049981;28;20247;-54
2022/03/03 12:54:11;;;;;;;12.57;9.70;;;6.80;97.60;;;;;;5051195;28;20242;-53
2022/03/03 12:56:41;;;;;;;10.65;7.55;;;6.80;97.90;;;;;;5043142;28;20201;-53
2022/03/03 12:59:09;;;;;;;15.65;9.52;;;6.80;98.60;;;;;;5050255;28;20250;-52
2022/03/03 13:01:38;;;;;;;13.60;9.13;;;6.70;99.00;;;;;;5039741;28;20216;-53
2022/03/03 13:04:08;;;;;;;11.80;9.50;;;6.70;99.40;;;;;;5045883;28;20197;-52
2022/03/03 13:06:36;;;;;;;11.15;8.25;;;6.70;99.90;;;;;;5047551;28;20545;-52
2022/03/03 13:09:06;;;;;;;11.32;8.93;;;6.70;99.80;;;;;;5049967;28;20250;-53
2022/03/03 13:11:36;;;;;;;10.57;8.38;;;6.70;99.90;;;;;;5051602;28;20223;-53